Time;durP1;ratioP1;P1;durP2;ratioP2;P2;SDS_P1;SDS_P2;PMS_P1;PMS_P2;Temp;Humidity;BMP_temperature;BMP_pressure;BME280_temperature;BME280_humidity;BME280_pressure;Samples;Min_cycle;Max_cycle;Signal;HPM_P1;HPM_P2
2022/10/20 00:01:00;;;;;;;0.20;0.20;;;;;;;7.17;100.00;99440.67;1715147;81;21408;-67
2022/10/20 00:03:27;;;;;;;0.60;0.60;;;;;;;7.17;100.00;99445.44;1712793;81;20975;-66
2022/10/20 00:05:54;;;;;;;0.50;0.50;;;;;;;7.13;100.00;99448.21;1729283;80;21846;-68
2022/10/20 00:08:20;;;;;;;0.47;0.47;;;;;;;7.04;100.00;99445.89;1715843;81;21609;-69
2022/10/20 00:10:55;;;;;;;0.50;0.50;;;;;;;6.95;100.00;99454.44;1712652;81;21819;-67
2022/10/20 00:13:23;;;;;;;0.68;0.40;;;;;;;6.91;100.00;99460.66;1691890;82;21597;-67
2022/10/20 00:15:52;;;;;;;1.12;0.65;;;;;;;6.87;100.00;99460.78;1718379;81;21668;-70
2022/10/20 00:18:19;;;;;;;1.57;0.60;;;;;;;6.82;100.00;99450.48;1689352;83;21029;-68
2022/10/20 00:20:46;;;;;;;1.87;0.40;;;;;;;6.75;100.00;99452.87;1687030;83;21570;-67
2022/10/20 00:23:14;;;;;;;0.50;0.50;;;;;;;6.60;100.00;99457.64;1693520;82;21515;-67
2022/10/20 00:25:42;;;;;;;0.40;0.40;;;;;;;6.55;100.00;99462.59;1687767;84;21124;-70
2022/10/20 00:28:09;;;;;;;0.88;0.53;;;;;;;6.53;100.00;99468.32;1714256;81;21546;-69
2022/10/20 00:30:36;;;;;;;0.88;0.47;;;;;;;6.47;100.00;99457.60;1722113;80;21427;-68
2022/10/20 00:33:03;;;;;;;2.92;0.62;;;;;;;6.40;100.00;99462.59;1721607;81;21479;-69
2022/10/20 00:35:31;;;;;;;1.12;0.53;;;;;;;6.36;100.00;99464.42;1673414;84;21894;-69
2022/10/20 00:37:58;;;;;;;0.30;0.30;;;;;;;6.29;100.00;99470.75;1727107;81;21543;-66
2022/10/20 00:40:25;;;;;;;1.67;0.70;;;;;;;6.20;100.00;99472.31;1686712;83;21559;-67
2022/10/20 00:42:51;;;;;;;0.93;0.55;;;;;;;6.16;100.00;99478.06;1678667;83;20974;-68
2022/10/20 00:45:20;;;;;;;1.87;0.45;;;;;;;6.12;100.00;99478.16;1682212;84;21499;-66
2022/10/20 00:47:50;;;;;;;0.90;0.70;;;;;;;6.07;100.00;99480.91;1694090;82;21828;-66
2022/10/20 00:50:34;;;;;;;0.50;0.50;;;;;;;5.94;100.00;99486.02;1710500;80;21512;-67
2022/10/20 00:53:00;;;;;;;0.50;0.50;;;;;;;5.88;100.00;99475.72;1720247;80;21594;-66
2022/10/20 00:55:31;;;;;;;1.12;0.50;;;;;;;5.78;100.00;99477.30;1713176;81;22253;-69
2022/10/20 00:57:58;;;;;;;1.57;0.40;;;;;;;5.75;100.00;99481.73;1715320;81;21687;-66
2022/10/20 01:00:25;;;;;;;0.75;0.50;;;;;;;5.75;100.00;99480.43;1693735;83;21770;-67
2022/10/20 01:02:53;;;;;;;0.90;0.30;;;;;;;5.74;100.00;99486.53;1720499;80;21491;-66
2022/10/20 01:05:20;;;;;;;1.62;0.42;;;;;;;5.71;100.00;99490.08;1713145;82;21812;-66
2022/10/20 01:07:48;;;;;;;2.67;0.60;;;;;;;5.65;100.00;99485.00;1722655;81;21499;-68
2022/10/20 01:10:15;;;;;;;0.55;0.45;;;;;;;5.63;100.00;99477.23;1717048;81;21522;-66
2022/10/20 01:13:05;;;;;;;0.90;0.50;;;;;;;5.62;100.00;99486.41;1671604;84;21764;-66
2022/10/20 01:15:51;;;;;;;0.90;0.50;;;;;;;5.59;100.00;99489.08;1678715;84;21542;-66
2022/10/20 01:18:24;;;;;;;0.47;0.47;;;;;;;5.56;100.00;99493.08;1679317;82;21557;-69
2022/10/20 01:21:03;;;;;;;0.93;0.65;;;;;;;5.57;100.00;99493.02;1721132;80;21484;-65
2022/10/20 01:24:05;;;;;;;1.42;0.60;;;;;;;5.63;100.00;99490.70;1713057;80;21459;-66
2022/10/20 01:26:47;;;;;;;0.60;0.50;;;;;;;5.68;100.00;99498.44;1716319;81;21883;-65
2022/10/20 01:29:27;;;;;;;2.40;0.50;;;;;;;5.69;100.00;99489.27;1715009;81;21097;-65
2022/10/20 01:32:25;;;;;;;0.60;0.47;;;;;;;5.70;100.00;99493.58;1711591;82;21503;-65
2022/10/20 01:35:38;;;;;;;0.57;0.42;;;;;;;5.74;100.00;99506.09;1722664;80;21495;-66
2022/10/20 01:38:27;;;;;;;0.50;0.45;;;;;;;5.77;100.00;99505.58;1690721;83;21400;-66
2022/10/20 01:41:00;;;;;;;;;;;;;;;5.75;100.00;99496.94;1684392;84;21781;-68
2022/10/20 01:43:30;;;;;;;0.65;0.30;;;;;;;5.68;100.00;99503.65;1665862;83;20440;-67
2022/10/20 01:45:57;;;;;;;0.88;0.50;;;;;;;5.62;100.00;99499.44;1673277;83;21016;-66
2022/10/20 01:48:26;;;;;;;0.35;0.30;;;;;;;5.61;100.00;99490.77;1693901;82;21072;-68
2022/10/20 01:50:53;;;;;;;2.55;0.53;;;;;;;5.56;100.00;99503.52;1682306;82;21109;-66
2022/10/20 01:53:20;;;;;;;0.67;0.43;;;;;;;5.49;100.00;99504.09;1686824;82;22227;-67
2022/10/20 01:55:51;;;;;;;0.80;0.53;;;;;;;5.46;100.00;99499.83;1681584;84;21560;-66
2022/10/20 01:58:48;;;;;;;0.72;0.47;;;;;;;5.44;100.00;99514.66;1687734;82;21641;-66
2022/10/20 02:01:44;;;;;;;3.22;0.50;;;;;;;5.36;100.00;99503.53;1681320;82;21471;-67
2022/10/20 02:04:11;;;;;;;2.25;0.55;;;;;;;5.31;100.00;99511.05;1685408;82;21484;-67
2022/10/20 02:07:01;;;;;;;0.98;0.60;;;;;;;5.28;100.00;99509.38;1678928;81;21847;-66
2022/10/20 02:09:42;;;;;;;0.40;0.40;;;;;;;5.28;100.00;99515.05;1676875;82;21011;-65
2022/10/20 02:12:16;;;;;;;0.88;0.42;;;;;;;5.26;100.00;99522.90;1692994;83;21539;-67
2022/10/20 02:14:44;;;;;;;0.40;0.40;;;;;;;5.25;100.00;99531.59;1648357;84;21528;-67
2022/10/20 02:17:13;;;;;;;1.95;0.60;;;;;;;5.25;100.00;99526.38;1693012;82;21519;-66
2022/10/20 02:19:42;;;;;;;0.62;0.40;;;;;;;5.23;100.00;99534.23;1673862;83;21488;-67
2022/10/20 02:22:10;;;;;;;0.50;0.50;;;;;;;5.28;100.00;99536.75;1681517;83;21069;-66
2022/10/20 02:24:39;;;;;;;2.15;0.50;;;;;;;5.34;100.00;99536.60;1682221;83;21546;-66
2022/10/20 02:27:23;;;;;;;1.30;0.40;;;;;;;5.42;100.00;99533.81;1691948;82;21817;-67
2022/10/20 02:29:58;;;;;;;0.72;0.50;;;;;;;5.48;100.00;99538.88;1679569;82;21400;-67
2022/10/20 02:32:25;;;;;;;5.00;0.70;;;;;;;5.46;100.00;99538.94;1676733;82;21795;-65
2022/10/20 02:34:52;;;;;;;0.77;0.50;;;;;;;5.53;100.00;99538.78;1687138;82;21519;-67
2022/10/20 02:37:18;;;;;;;1.32;0.45;;;;;;;5.58;100.00;99544.76;1685622;83;21665;-69
2022/10/20 02:39:46;;;;;;;0.75;0.50;;;;;;;5.60;100.00;99534.69;1689572;82;21483;-69
2022/10/20 02:42:12;;;;;;;0.90;0.60;;;;;;;5.62;100.00;99542.03;1693193;83;21440;-66
2022/10/20 02:44:39;;;;;;;0.55;0.55;;;;;;;5.62;100.00;99540.72;1688519;82;21835;-67
2022/10/20 02:47:06;;;;;;;3.10;0.60;;;;;;;5.68;100.00;99542.33;1692583;82;21487;-66
2022/10/20 02:49:32;;;;;;;1.12;0.42;;;;;;;5.69;100.00;99540.14;1678681;83;21459;-67
2022/10/20 02:52:00;;;;;;;2.30;0.65;;;;;;;5.71;100.00;99543.98;1692557;82;21488;-67
2022/10/20 02:54:27;;;;;;;1.02;0.57;;;;;;;5.71;100.00;99551.39;1688986;83;21070;-68
2022/10/20 02:56:54;;;;;;;0.68;0.47;;;;;;;5.75;100.00;99543.05;1682735;82;21569;-66
2022/10/20 02:59:21;;;;;;;0.90;0.60;;;;;;;5.77;100.00;99547.32;1687432;82;21557;-65
2022/10/20 03:01:47;;;;;;;4.15;0.57;;;;;;;5.80;100.00;99544.64;1693700;83;21432;-67
2022/10/20 03:04:15;;;;;;;0.70;0.60;;;;;;;5.80;100.00;99545.07;1691674;82;21132;-65
2022/10/20 03:06:43;;;;;;;4.33;0.50;;;;;;;5.78;100.00;99542.95;1682420;82;21555;-65
2022/10/20 03:09:09;;;;;;;0.78;0.50;;;;;;;5.77;100.00;99550.38;1690455;82;22204;-66
2022/10/20 03:11:36;;;;;;;0.70;0.50;;;;;;;5.78;100.00;99540.34;1692925;83;21511;-66
2022/10/20 03:14:04;;;;;;;1.37;0.60;;;;;;;5.79;100.00;99548.13;1687041;82;21614;-67
2022/10/20 03:16:32;;;;;;;1.15;0.57;;;;;;;5.81;100.00;99549.41;1700247;83;21480;-65
2022/10/20 03:18:58;;;;;;;0.70;0.50;;;;;;;5.77;100.00;99547.77;1695006;82;20983;-66
2022/10/20 03:21:25;;;;;;;0.50;0.40;;;;;;;5.77;100.00;99545.17;1684584;82;21795;-66
2022/10/20 03:23:52;;;;;;;1.65;0.70;;;;;;;5.74;100.00;99553.91;1684404;82;21535;-62
2022/10/20 03:26:19;;;;;;;1.02;0.50;;;;;;;5.72;100.00;99554.39;1669757;84;21062;-62
2022/10/20 03:28:46;;;;;;;2.37;0.60;;;;;;;5.69;100.00;99551.87;1681330;82;21526;-63
2022/10/20 03:31:12;;;;;;;0.80;0.60;;;;;;;5.61;100.00;99548.16;1686200;82;21665;-63
2022/10/20 03:33:39;;;;;;;1.90;0.65;;;;;;;5.55;100.00;99548.27;1691422;82;21911;-67
2022/10/20 03:36:06;;;;;;;0.78;0.60;;;;;;;5.51;100.00;99554.92;1682393;82;21053;-65
2022/10/20 03:38:33;;;;;;;0.85;0.62;;;;;;;5.47;100.00;99561.95;1678653;82;21030;-67
2022/10/20 03:41:00;;;;;;;2.40;0.67;;;;;;;5.44;100.00;99564.20;1683494;83;21500;-65
2022/10/20 03:43:27;;;;;;;0.90;0.77;;;;;;;5.43;100.00;99563.77;1686922;83;21625;-66
2022/10/20 03:46:08;;;;;;;0.50;0.50;;;;;;;5.48;100.00;99569.33;1678473;83;21825;-66
2022/10/20 03:48:35;;;;;;;2.30;0.60;;;;;;;5.51;100.00;99562.75;1689092;82;21585;-65
2022/10/20 03:51:03;;;;;;;0.55;0.40;;;;;;;5.52;100.00;99565.32;1685813;82;25182;-66
2022/10/20 03:53:29;;;;;;;0.98;0.60;;;;;;;5.55;100.00;99571.75;1678829;84;21028;-64
2022/10/20 03:55:56;;;;;;;3.83;0.50;;;;;;;5.54;100.00;99567.87;1672308;82;21484;-65
2022/10/20 03:58:23;;;;;;;0.60;0.57;;;;;;;5.53;100.00;99577.45;1677180;82;21830;-66
2022/10/20 04:00:49;;;;;;;0.37;0.37;;;;;;;5.55;100.00;99577.42;1684394;82;21562;-67
2022/10/20 04:03:16;;;;;;;1.25;0.60;;;;;;;5.53;100.00;99569.63;1692935;82;21598;-67
2022/10/20 04:05:43;;;;;;;0.70;0.60;;;;;;;5.55;100.00;99570.90;1692112;83;21525;-66
2022/10/20 04:08:11;;;;;;;0.60;0.60;;;;;;;5.57;100.00;99567.81;1732153;80;21419;-67
2022/10/20 04:10:38;;;;;;;0.45;0.45;;;;;;;5.64;100.00;99570.23;1726784;80;21912;-67
2022/10/20 04:13:05;;;;;;;1.45;0.60;;;;;;;5.69;100.00;99562.73;1735897;80;21485;-71
2022/10/20 04:15:32;;;;;;;0.80;0.65;;;;;;;5.68;100.00;99573.63;1689535;83;21383;-67
2022/10/20 04:18:00;;;;;;;2.05;0.65;;;;;;;5.66;100.00;99570.20;1730241;80;21458;-67
2022/10/20 04:20:27;;;;;;;1.25;0.50;;;;;;;5.68;100.00;99573.63;1722063;80;21631;-68
2022/10/20 04:22:54;;;;;;;0.70;0.67;;;;;;;5.65;100.00;99570.66;1689125;83;21819;-69
2022/10/20 04:25:21;;;;;;;0.60;0.60;;;;;;;5.62;100.00;99572.02;1684130;83;21154;-69
2022/10/20 04:27:48;;;;;;;1.10;0.60;;;;;;;5.65;100.00;99572.38;1691199;82;21612;-68
2022/10/20 04:30:15;;;;;;;1.65;0.75;;;;;;;5.70;100.00;99579.66;1695236;83;21132;-68
2022/10/20 04:32:43;;;;;;;0.82;0.80;;;;;;;5.68;100.00;99576.69;1694403;83;21430;-67
2022/10/20 04:35:11;;;;;;;0.85;0.47;;;;;;;5.64;100.00;99583.73;1694497;82;21406;-69
2022/10/20 04:37:38;;;;;;;0.60;0.57;;;;;;;5.69;100.00;99574.05;1708824;82;21474;-67
2022/10/20 04:40:07;;;;;;;0.50;0.50;;;;;;;5.67;100.00;99573.23;1694725;82;21578;-68
2022/10/20 04:42:33;;;;;;;;;;;;;;;5.66;100.00;99579.33;1701253;83;21573;-67
2022/10/20 04:45:00;;;;;;;1.55;0.62;;;;;;;5.59;100.00;99581.21;1679295;84;20424;-68
2022/10/20 04:47:32;;;;;;;1.12;0.80;;;;;;;5.59;100.00;99579.91;1682048;84;21949;-68
2022/10/20 04:49:58;;;;;;;0.68;0.60;;;;;;;5.56;100.00;99590.89;1674111;83;21486;-67
2022/10/20 04:52:25;;;;;;;0.60;0.60;;;;;;;5.59;100.00;99594.70;1686183;83;21515;-68
2022/10/20 04:54:52;;;;;;;0.55;0.53;;;;;;;5.59;100.00;99590.80;1678162;84;21606;-69
2022/10/20 04:57:18;;;;;;;1.12;0.40;;;;;;;5.60;100.00;99599.05;1682564;83;21519;-67
2022/10/20 04:59:45;;;;;;;0.50;0.50;;;;;;;5.57;100.00;99599.95;1679926;83;21803;-68
2022/10/20 05:02:12;;;;;;;0.57;0.57;;;;;;;5.62;100.00;99596.80;1683594;83;21488;-68
2022/10/20 05:04:38;;;;;;;1.45;0.90;;;;;;;5.64;100.00;99602.84;1675643;84;21535;-68
2022/10/20 05:07:06;;;;;;;3.27;0.62;;;;;;;5.71;100.00;99602.27;1673989;83;21524;-67
2022/10/20 05:09:33;;;;;;;1.67;0.70;;;;;;;5.74;100.00;99604.78;1687772;83;20964;-67
2022/10/20 05:12:01;;;;;;;0.80;0.80;;;;;;;5.78;100.00;99609.48;1680761;83;25699;-67
2022/10/20 05:14:28;;;;;;;2.05;0.60;;;;;;;5.76;100.00;99614.73;1671046;83;21050;-68
2022/10/20 05:16:56;;;;;;;1.95;0.50;;;;;;;5.76;100.00;99608.20;1676540;84;21515;-68
2022/10/20 05:19:22;;;;;;;1.05;0.60;;;;;;;5.78;100.00;99610.36;1682609;83;21622;-67
2022/10/20 05:21:49;;;;;;;1.65;0.60;;;;;;;5.79;100.00;99612.06;1683801;83;20959;-67
2022/10/20 05:24:17;;;;;;;0.65;0.65;;;;;;;5.81;100.00;99608.96;1676477;84;21956;-70
2022/10/20 05:26:44;;;;;;;1.22;0.70;;;;;;;5.76;100.00;99621.25;1689843;82;21559;-67
2022/10/20 05:29:11;;;;;;;0.80;0.60;;;;;;;5.73;100.00;99623.95;1693930;82;21467;-67
2022/10/20 05:31:41;;;;;;;4.55;0.62;;;;;;;5.73;100.00;99625.72;1684463;82;21532;-69
2022/10/20 05:34:08;;;;;;;1.77;0.60;;;;;;;5.72;100.00;99627.44;1684263;82;21508;-69
2022/10/20 05:36:35;;;;;;;1.17;0.60;;;;;;;5.75;100.00;99637.81;1686881;82;21884;-67
2022/10/20 05:39:02;;;;;;;2.17;0.60;;;;;;;5.75;100.00;99629.99;1688920;82;21563;-69
2022/10/20 05:41:31;;;;;;;1.30;0.60;;;;;;;5.73;100.00;99637.00;1677215;83;21022;-69
2022/10/20 05:43:59;;;;;;;0.85;0.70;;;;;;;5.74;100.00;99630.87;1680124;82;21478;-67
2022/10/20 05:46:30;;;;;;;1.12;0.60;;;;;;;5.73;100.00;99635.69;1685539;82;21582;-67
2022/10/20 05:48:59;;;;;;;1.40;0.50;;;;;;;5.68;100.00;99636.23;1693270;82;21794;-67
2022/10/20 05:51:29;;;;;;;0.45;0.40;;;;;;;5.61;100.00;99652.91;1680758;82;21538;-69
2022/10/20 05:53:56;;;;;;;0.60;0.60;;;;;;;5.56;100.00;99645.66;1689278;83;21527;-68
2022/10/20 05:56:24;;;;;;;0.50;0.50;;;;;;;5.61;100.00;99648.58;1680046;82;21207;-68
2022/10/20 05:58:51;;;;;;;0.55;0.53;;;;;;;5.61;100.00;99665.95;1692368;81;21459;-68
2022/10/20 06:01:23;;;;;;;1.20;1.02;;;;;;;5.62;100.00;99653.34;1685453;83;22100;-65
2022/10/20 06:03:55;;;;;;;1.20;1.00;;;;;;;5.49;100.00;99669.70;1689773;82;21554;-64
2022/10/20 06:06:28;;;;;;;1.40;1.30;;;;;;;5.53;100.00;99677.86;1687955;83;20975;-64
2022/10/20 06:08:57;;;;;;;1.95;1.50;;;;;;;5.53;100.00;99675.25;1690222;82;21587;-65
2022/10/20 06:11:25;;;;;;;2.90;1.30;;;;;;;5.51;100.00;99687.47;1688024;84;21578;-64
2022/10/20 06:13:52;;;;;;;1.98;1.72;;;;;;;5.49;100.00;99684.05;1682462;82;21806;-67
2022/10/20 06:16:22;;;;;;;3.15;1.98;;;;;;;5.49;100.00;99685.34;1685009;82;21464;-65
2022/10/20 06:18:50;;;;;;;1.75;1.65;;;;;;;5.52;100.00;99682.69;1684922;82;21479;-65
2022/10/20 06:21:22;;;;;;;3.15;2.02;;;;;;;5.54;100.00;99688.72;1690519;82;21533;-65
2022/10/20 06:23:49;;;;;;;2.02;1.72;;;;;;;5.53;100.00;99686.14;1680420;83;21563;-70
2022/10/20 06:26:18;;;;;;;2.20;1.30;;;;;;;5.58;100.00;99685.16;1687031;82;21661;-68
2022/10/20 06:28:47;;;;;;;1.82;1.32;;;;;;;5.53;100.00;99688.75;1685441;82;21522;-66
2022/10/20 06:31:16;;;;;;;1.25;1.15;;;;;;;5.50;100.00;99688.37;1682325;83;21500;-67
2022/10/20 06:33:43;;;;;;;1.45;1.15;;;;;;;5.50;100.00;99695.32;1684688;82;20970;-67
2022/10/20 06:36:10;;;;;;;1.30;0.93;;;;;;;5.50;100.00;99692.72;1688500;82;21598;-67
2022/10/20 06:38:37;;;;;;;0.83;0.83;;;;;;;5.51;100.00;99698.36;1687354;82;21431;-65
2022/10/20 06:41:09;;;;;;;0.95;0.60;;;;;;;5.48;100.00;99699.72;1695025;84;21452;-66
2022/10/20 06:43:37;;;;;;;0.70;0.70;;;;;;;5.48;100.00;99692.74;1687045;82;21427;-67
2022/10/20 06:46:06;;;;;;;3.98;1.00;;;;;;;5.47;100.00;99697.56;1682786;82;21475;-66
2022/10/20 06:48:34;;;;;;;1.25;0.80;;;;;;;5.51;100.00;99708.80;1687853;82;21431;-66
2022/10/20 06:51:08;;;;;;;0.67;0.67;;;;;;;5.57;100.00;99708.66;1698913;82;21832;-68
2022/10/20 06:53:35;;;;;;;0.65;0.65;;;;;;;5.56;100.00;99708.25;1693268;82;21452;-67
2022/10/20 06:56:05;;;;;;;1.15;1.02;;;;;;;5.53;100.00;99712.22;1696033;82;21523;-67
2022/10/20 06:58:34;;;;;;;0.93;0.90;;;;;;;5.56;100.00;99709.11;1679358;82;21022;-67
2022/10/20 07:01:03;;;;;;;;;;;;;;;5.63;100.00;99718.95;1686701;84;21579;-67
2022/10/20 07:03:29;;;;;;;3.47;1.10;;;;;;;5.62;100.00;99714.64;1690005;82;21750;-66
2022/10/20 07:05:56;;;;;;;1.22;1.12;;;;;;;5.65;100.00;99710.64;1692219;82;21027;-67
2022/10/20 07:08:23;;;;;;;1.73;1.37;;;;;;;5.64;100.00;99720.23;1686718;82;21079;-66
2022/10/20 07:11:11;;;;;;;1.45;1.35;;;;;;;5.70;100.00;99718.38;1679855;84;21471;-67
2022/10/20 07:13:39;;;;;;;2.20;1.62;;;;;;;5.75;100.00;99725.67;1685563;82;20943;-67
2022/10/20 07:16:07;;;;;;;2.47;2.27;;;;;;;5.84;100.00;99723.72;1686574;82;22037;-66
2022/10/20 07:18:34;;;;;;;;;;;;;;;5.93;100.00;99721.78;1693408;83;21588;-67
2022/10/20 07:21:05;;;;;;;2.15;1.80;;;;;;;5.93;100.00;99729.16;1696331;84;20438;-69
2022/10/20 07:23:32;;;;;;;1.32;1.22;;;;;;;5.92;100.00;99721.39;1681706;82;23092;-67
2022/10/20 07:26:11;;;;;;;1.10;0.95;;;;;;;5.95;100.00;99723.91;1690291;83;21524;-67
2022/10/20 07:28:41;;;;;;;1.10;1.00;;;;;;;5.95;100.00;99729.13;1673195;83;21411;-67
2022/10/20 07:31:31;;;;;;;0.98;0.88;;;;;;;5.93;100.00;99724.39;1680788;83;21439;-67
2022/10/20 07:33:58;;;;;;;1.15;1.05;;;;;;;5.96;100.00;99725.22;1673200;83;21519;-68
2022/10/20 07:36:29;;;;;;;1.30;1.20;;;;;;;5.93;100.00;99726.55;1678001;83;21590;-67
2022/10/20 07:38:58;;;;;;;1.77;1.27;;;;;;;5.89;100.00;99731.43;1684332;83;21123;-67
2022/10/20 07:41:25;;;;;;;1.00;1.00;;;;;;;5.92;100.00;99738.35;1672922;83;21830;-67
2022/10/20 07:43:53;;;;;;;1.32;1.20;;;;;;;5.99;100.00;99745.16;1672885;83;21465;-68
2022/10/20 07:46:20;;;;;;;4.70;1.50;;;;;;;5.92;100.00;99744.42;1684201;83;21550;-67
2022/10/20 07:48:47;;;;;;;2.08;1.62;;;;;;;5.91;100.00;99743.99;1717548;82;20999;-67
2022/10/20 07:51:27;;;;;;;2.75;2.22;;;;;;;5.96;100.00;99755.23;1720698;81;21523;-68
2022/10/20 07:53:58;;;;;;;1.85;1.67;;;;;;;6.02;100.00;99750.32;1713830;81;21897;-67
2022/10/20 07:56:31;;;;;;;1.98;1.80;;;;;;;6.01;100.00;99755.15;1720752;81;21595;-67
2022/10/20 07:58:58;;;;;;;1.27;1.17;;;;;;;6.03;100.00;99754.20;1726192;82;21471;-68
2022/10/20 08:01:25;;;;;;;2.22;1.20;;;;;;;6.06;100.00;99767.63;1715994;81;21554;-67
2022/10/20 08:03:53;;;;;;;2.33;1.47;;;;;;;5.99;100.00;99760.39;1715172;81;21420;-66
2022/10/20 08:06:20;;;;;;;1.20;1.10;;;;;;;6.01;100.00;99762.52;1719896;81;21937;-66
2022/10/20 08:08:48;;;;;;;0.90;0.90;;;;;;;6.00;100.00;99762.09;1694427;81;21439;-67
2022/10/20 08:11:17;;;;;;;2.35;1.15;;;;;;;6.02;100.00;99764.67;1684108;84;21546;-67
2022/10/20 08:13:43;;;;;;;1.25;1.00;;;;;;;6.08;100.00;99767.14;1686990;84;21454;-66
2022/10/20 08:16:11;;;;;;;1.07;0.98;;;;;;;6.11;100.00;99771.00;1687587;84;21427;-67
2022/10/20 08:18:38;;;;;;;1.30;1.20;;;;;;;6.17;100.00;99760.41;1685054;82;21550;-66
2022/10/20 08:21:17;;;;;;;1.10;1.00;;;;;;;6.24;100.00;99763.75;1688043;84;21139;-66
2022/10/20 08:23:46;;;;;;;1.40;1.20;;;;;;;6.29;100.00;99766.24;1723865;81;21435;-65
2022/10/20 08:26:23;;;;;;;1.15;1.05;;;;;;;6.36;100.00;99770.44;1730721;81;21457;-65
2022/10/20 08:28:51;;;;;;;2.05;1.37;;;;;;;6.39;100.00;99765.15;1701505;82;20982;-64
2022/10/20 08:31:18;;;;;;;2.42;1.02;;;;;;;6.39;100.00;99763.84;1679482;84;21836;-66
2022/10/20 08:33:45;;;;;;;1.57;0.90;;;;;;;6.39;100.00;99774.30;1676211;83;21454;-65
2022/10/20 08:36:13;;;;;;;0.75;0.75;;;;;;;6.37;100.00;99766.94;1671207;84;20985;-65
2022/10/20 08:38:40;;;;;;;1.20;1.10;;;;;;;6.34;100.00;99783.52;1685341;83;21533;-65
2022/10/20 08:41:24;;;;;;;1.50;1.02;;;;;;;6.32;100.00;99772.71;1673445;84;21063;-67
2022/10/20 08:43:53;;;;;;;1.17;1.07;;;;;;;6.30;100.00;99788.41;1652847;85;21831;-66
2022/10/20 08:46:23;;;;;;;1.62;1.07;;;;;;;6.31;100.00;99793.17;1658569;85;21457;-66
2022/10/20 08:48:50;;;;;;;1.40;1.17;;;;;;;6.34;100.00;99786.59;1660948;85;21444;-65
2022/10/20 08:51:22;;;;;;;2.12;1.02;;;;;;;6.37;100.00;99795.22;1658496;85;21019;-66
2022/10/20 08:53:54;;;;;;;1.20;1.10;;;;;;;6.44;100.00;99797.22;1650401;85;21483;-65
2022/10/20 08:56:24;;;;;;;2.12;1.07;;;;;;;6.46;100.00;99798.07;1661839;85;21799;-66
2022/10/20 08:58:51;;;;;;;1.15;0.70;;;;;;;6.48;100.00;99803.23;1653625;84;21554;-65
2022/10/20 09:01:25;;;;;;;0.70;0.70;;;;;;;6.56;100.00;99803.48;1659672;84;21522;-64
2022/10/20 09:04:00;;;;;;;0.90;0.72;;;;;;;6.66;100.00;99805.41;1677259;83;21592;-65
2022/10/20 09:06:28;;;;;;;1.15;0.90;;;;;;;6.70;100.00;99808.36;1665314;84;21687;-65
2022/10/20 09:08:55;;;;;;;1.35;0.85;;;;;;;6.71;100.00;99806.17;1673502;84;21863;-65
2022/10/20 09:11:26;;;;;;;0.72;0.68;;;;;;;6.75;100.00;99805.65;1665229;84;21586;-65
2022/10/20 09:13:53;;;;;;;2.67;0.90;;;;;;;6.77;100.00;99802.55;1673809;84;21596;-64
2022/10/20 09:16:36;;;;;;;1.02;0.90;;;;;;;6.71;100.00;99810.55;1670144;83;21621;-65
2022/10/20 09:19:01;;;;;;;1.10;1.00;;;;;;;6.69;100.00;99804.05;1672577;83;21459;-64
2022/10/20 09:21:31;;;;;;;2.30;0.93;;;;;;;6.66;100.00;99815.02;1654078;84;21543;-64
2022/10/20 09:24:04;;;;;;;1.00;0.90;;;;;;;6.67;100.00;99822.83;1660428;84;21636;-61
2022/10/20 09:30:34;;;;;;;1.12;1.00;;;;;;;6.70;100.00;99812.28;1655387;84;21463;-61
2022/10/20 09:33:21;;;;;;;4.17;1.37;;;;;;;6.63;100.00;99815.50;1665978;84;20995;-63
2022/10/20 09:35:48;;;;;;;1.52;1.30;;;;;;;6.63;100.00;99814.20;1656207;84;22044;-62
2022/10/20 09:38:23;;;;;;;1.25;1.05;;;;;;;6.60;100.00;99819.94;1663656;84;21604;-63
2022/10/20 09:41:13;;;;;;;2.62;0.93;;;;;;;6.62;100.00;99824.68;1656066;85;21507;-64
2022/10/20 09:43:49;;;;;;;2.17;1.30;;;;;;;6.67;100.00;99827.17;1659297;84;21456;-63
2022/10/20 09:46:23;;;;;;;1.47;1.37;;;;;;;6.70;100.00;99834.94;1659433;85;21660;-62
2022/10/20 09:48:50;;;;;;;2.65;1.05;;;;;;;6.75;100.00;99841.78;1660547;85;21522;-62
2022/10/20 09:51:23;;;;;;;1.40;1.25;;;;;;;6.76;100.00;99843.52;1660831;84;21554;-63
2022/10/20 09:54:03;;;;;;;1.67;1.32;;;;;;;6.77;100.00;99833.45;1658601;84;21525;-63
2022/10/20 09:56:36;;;;;;;1.95;1.30;;;;;;;6.77;100.00;99839.98;1666329;85;21491;-62
2022/10/20 09:59:14;;;;;;;1.40;1.30;;;;;;;6.74;100.00;99838.77;1665908;84;21438;-64
2022/10/20 10:01:56;;;;;;;1.10;0.90;;;;;;;6.75;100.00;99848.31;1648933;84;22096;-62
2022/10/20 10:04:38;;;;;;;1.50;1.40;;;;;;;6.80;100.00;99854.30;1661663;84;21447;-63
2022/10/20 10:07:24;;;;;;;2.65;1.20;;;;;;;6.83;100.00;99859.43;1690614;82;21546;-62
2022/10/20 10:09:57;;;;;;;1.33;1.23;;;;;;;6.82;100.00;99850.34;1670785;83;21483;-63
2022/10/20 10:12:27;;;;;;;1.40;1.10;;;;;;;6.87;100.00;99867.20;1688949;83;21530;-63
2022/10/20 10:15:05;;;;;;;4.25;1.40;;;;;;;6.89;100.00;99855.81;1660926;83;22025;-64
2022/10/20 10:17:37;;;;;;;3.12;1.40;;;;;;;6.98;100.00;99863.43;1643296;85;21437;-64
2022/10/20 10:20:13;;;;;;;1.42;1.20;;;;;;;7.06;100.00;99857.16;1647834;84;21464;-64
2022/10/20 10:22:41;;;;;;;1.32;1.20;;;;;;;7.12;100.00;99857.88;1657920;85;21479;-65
2022/10/20 10:25:26;;;;;;;2.20;1.00;;;;;;;7.10;100.00;99865.33;1660069;84;21523;-64
2022/10/20 10:28:08;;;;;;;1.30;1.12;;;;;;;7.09;100.00;99865.79;1656751;84;21878;-63
2022/10/20 10:30:37;;;;;;;3.10;1.30;;;;;;;7.04;100.00;99856.34;1662191;85;21456;-64
2022/10/20 10:33:26;;;;;;;1.27;1.17;;;;;;;6.98;100.00;99866.05;1659916;84;21446;-64
2022/10/20 10:38:22;;;;;;;1.50;1.10;;;;;;;6.63;100.00;99875.59;1779607;79;23003;-63
2022/10/20 10:41:28;;;;;;;1.30;1.20;;;;;;;7.02;100.00;99873.37;1743548;80;21092;-63
2022/10/20 10:44:20;;;;;;;1.40;1.30;;;;;;;7.07;100.00;99870.66;1750368;80;21860;-63
2022/10/20 10:47:14;;;;;;;0.80;0.80;;;;;;;7.10;100.00;99869.25;1732576;80;21568;-62
2022/10/20 10:49:53;;;;;;;1.77;1.05;;;;;;;7.13;100.00;99873.11;1745789;79;21545;-61
2022/10/20 10:52:33;;;;;;;1.27;1.17;;;;;;;7.14;100.00;99870.89;1735189;81;21566;-62
2022/10/20 10:55:25;;;;;;;1.62;1.37;;;;;;;7.16;100.00;99871.28;1729359;80;21422;-65
2022/10/20 11:44:45;;;;;;;1.30;1.20;;;;;;;6.18;100.00;99895.30;1829872;75;26757;-62
2022/10/20 11:47:16;;;;;;;1.30;1.20;;;;;;;6.47;100.00;99891.66;1827769;76;21486;-62
2022/10/20 11:49:43;;;;;;;1.15;1.10;;;;;;;6.65;100.00;99886.44;1784905;78;22000;-63
2022/10/20 11:52:30;;;;;;;0.98;0.90;;;;;;;6.74;100.00;99899.30;1812362;78;21679;-65
2022/10/20 11:55:14;;;;;;;1.98;1.07;;;;;;;6.84;100.00;99908.66;1797091;77;21437;-62
2022/10/20 11:58:24;;;;;;;2.98;1.45;;;;;;;6.92;100.00;99917.17;1786010;78;21667;-61
2022/10/20 12:01:30;;;;;;;1.30;1.20;;;;;;;7.05;100.00;99903.83;1782551;78;21505;-60
2022/10/20 12:04:36;;;;;;;1.55;1.45;;;;;;;7.22;100.00;99918.65;1768184;77;21771;-60
2022/10/20 12:07:09;;;;;;;1.42;1.20;;;;;;;7.35;100.00;99908.29;1740574;79;21509;-62
2022/10/20 12:09:51;;;;;;;1.55;1.22;;;;;;;7.43;100.00;99910.70;1788391;78;21459;-62
2022/10/20 12:12:36;;;;;;;1.30;1.20;;;;;;;7.53;100.00;99920.02;1783062;77;21511;-61
2022/10/20 12:15:07;;;;;;;1.40;1.15;;;;;;;7.57;100.00;99919.07;1818284;77;21195;-62
2022/10/20 12:17:35;;;;;;;1.20;1.10;;;;;;;7.60;100.00;99912.89;1798579;76;21923;-61
2022/10/20 12:20:27;;;;;;;0.95;0.95;;;;;;;7.65;100.00;99928.02;1813333;76;21499;-60
2022/10/20 12:22:57;;;;;;;1.05;0.95;;;;;;;7.69;100.00;99927.50;1808292;76;21448;-61
2022/10/20 12:25:30;;;;;;;2.55;1.02;;;;;;;7.74;100.00;99937.38;1827072;76;21422;-61
2022/10/20 12:28:26;;;;;;;1.12;1.10;;;;;;;7.81;100.00;99929.77;1831029;76;21546;-61
2022/10/20 12:31:00;;;;;;;1.30;0.85;;;;;;;7.78;100.00;99939.88;1800457;77;21851;-61
2022/10/20 12:33:50;;;;;;;1.15;1.10;;;;;;;7.85;100.00;99950.19;1789711;77;21459;-61
2022/10/20 12:36:29;;;;;;;0.93;0.93;;;;;;;7.92;100.00;99954.36;1826421;75;21454;-61
2022/10/20 12:39:15;;;;;;;2.70;0.93;;;;;;;7.99;100.00;99953.30;1829506;77;21469;-62
2022/10/20 12:42:00;;;;;;;;;;;;;;;7.94;100.00;99966.96;1820539;76;21699;-62
2022/10/20 12:44:31;;;;;;;3.33;1.20;;;;;;;7.73;100.00;99971.86;1786303;76;22058;-61
2022/10/20 12:47:06;;;;;;;1.95;1.20;;;;;;;7.65;100.00;99972.52;1817028;75;21564;-61
2022/10/20 12:49:36;;;;;;;1.45;1.20;;;;;;;7.65;100.00;99979.06;1757210;79;21481;-60